Time;durP1;ratioP1;P1;durP2;ratioP2;P2;SDS_P1;SDS_P2;PMS_P1;PMS_P2;Temp;Humidity;BMP_temperature;BMP_pressure;BME280_temperature;BME280_humidity;BME280_pressure;Samples;Min_cycle;Max_cycle;Signal;HPM_P1;HPM_P2
2021/11/28 00:00:21;;;;;;;;;;;3.40;99.90;;;;;;5115271;28;20347;-45
2021/11/28 00:02:49;;;;;;;;;;;3.40;99.90;;;;;;5115333;28;20454;-47
2021/11/28 00:05:16;;;;;;;;;;;3.30;99.90;;;;;;5114330;28;19967;-47
2021/11/28 00:07:53;;;;;;;;;;;3.40;99.90;;;;;;5115473;28;20003;-47
2021/11/28 00:10:41;;;;;;;;;;;3.20;99.90;;;;;;5114834;28;19923;-46
2021/11/28 00:13:08;;;;;;;;;;;3.10;99.90;;;;;;5114572;28;19923;-47
2021/11/28 00:15:35;;;;;;;;;;;3.00;99.90;;;;;;5114911;28;20373;-47
2021/11/28 00:18:02;;;;;;;;;;;3.10;99.90;;;;;;5114855;28;19924;-46
2021/11/28 00:20:29;;;;;;;;;;;3.10;99.90;;;;;;5114302;28;19932;-47
2021/11/28 00:22:56;;;;;;;;;;;3.00;99.90;;;;;;5114891;28;19969;-46
2021/11/28 00:25:25;;;;;;;;;;;3.20;99.90;;;;;;5114751;28;19931;-47
2021/11/28 00:27:52;;;;;;;;;;;3.00;99.90;;;;;;5114721;28;19976;-47
2021/11/28 00:30:21;;;;;;;;;;;3.20;99.90;;;;;;5114402;28;20346;-47
2021/11/28 00:32:49;;;;;;;;;;;3.20;99.90;;;;;;5114551;28;19928;-47
2021/11/28 00:35:15;;;;;;;;;;;3.10;99.90;;;;;;5114635;28;19969;-47
2021/11/28 00:37:42;;;;;;;;;;;3.10;99.90;;;;;;5114551;28;19969;-47
2021/11/28 00:40:10;;;;;;;;;;;3.10;99.90;;;;;;5114375;28;19969;-47
2021/11/28 00:42:38;;;;;;;;;;;2.90;99.90;;;;;;5114145;28;19923;-47
2021/11/28 00:45:05;;;;;;;;;;;3.00;99.90;;;;;;5114506;28;20438;-48
2021/11/28 00:47:32;;;;;;;;;;;3.00;99.90;;;;;;5114126;28;19933;-47
2021/11/28 00:50:07;;;;;;;;;;;3.00;99.90;;;;;;5114263;28;19980;-47
2021/11/28 00:52:34;;;;;;;;;;;3.10;99.90;;;;;;5114149;28;20449;-47
2021/11/28 00:55:02;;;;;;;;;;;3.10;99.90;;;;;;5113804;28;19924;-47
2021/11/28 00:57:28;;;;;;;;;;;3.10;99.90;;;;;;5113623;28;19927;-47
2021/11/28 01:00:00;;;;;;;;;;;3.40;99.90;;;;;;5113832;28;19981;-47
2021/11/28 01:02:26;;;;;;;;;;;3.10;99.90;;;;;;5114252;28;19924;-48
2021/11/28 01:04:53;;;;;;;;;;;3.00;99.90;;;;;;5114029;28;19924;-47
2021/11/28 01:07:20;;;;;;;;;;;2.80;99.90;;;;;;5113966;28;19924;-47
2021/11/28 01:09:49;;;;;;;;;;;2.70;99.90;;;;;;5112695;28;21598;-47
2021/11/28 01:12:16;;;;;;;;;;;2.80;99.90;;;;;;5113641;28;19923;-46
2021/11/28 01:14:42;;;;;;;;;;;2.80;99.90;;;;;;5113443;28;19969;-47
2021/11/28 01:17:10;;;;;;;;;;;3.10;99.90;;;;;;5113603;28;19950;-48
2021/11/28 01:19:37;;;;;;;;;;;3.20;99.90;;;;;;5114141;28;19927;-47
2021/11/28 01:22:05;;;;;;;;;;;3.30;99.90;;;;;;5113553;28;20347;-47
2021/11/28 01:24:32;;;;;;;;;;;3.10;99.90;;;;;;5113881;28;19927;-47
2021/11/28 01:26:59;;;;;;;;;;;3.10;99.90;;;;;;5113415;28;19931;-46
2021/11/28 01:29:26;;;;;;;;;;;2.90;99.90;;;;;;5113239;28;19924;-46
2021/11/28 01:31:53;;;;;;;;;;;3.00;99.90;;;;;;5113237;28;20347;-47
2021/11/28 01:34:21;;;;;;;;;;;2.80;99.90;;;;;;5113406;28;19969;-46
2021/11/28 01:36:48;;;;;;;;;;;2.80;99.90;;;;;;5113432;28;20359;-47
2021/11/28 01:39:15;;;;;;;;;;;2.90;99.90;;;;;;5113219;28;20373;-47
2021/11/28 01:41:42;;;;;;;;;;;2.80;99.90;;;;;;5109744;28;19924;-47
2021/11/28 01:44:09;;;;;;;;;;;2.80;99.90;;;;;;5113310;28;19928;-47
2021/11/28 01:46:36;;;;;;;;;;;2.70;99.90;;;;;;5113486;28;19927;-47
2021/11/28 01:49:03;;;;;;;;;;;2.60;99.90;;;;;;5113453;28;19975;-47
2021/11/28 01:51:31;;;;;;;;;;;2.80;99.90;;;;;;5113079;28;19928;-47
2021/11/28 01:53:58;;;;;;;;;;;2.80;99.90;;;;;;5113206;28;19924;-47
2021/11/28 01:56:25;;;;;;;;;;;2.60;99.90;;;;;;5112851;28;19928;-47
2021/11/28 01:58:52;;;;;;;;;;;2.30;99.90;;;;;;5112508;28;19923;-47
2021/11/28 02:01:20;;;;;;;;;;;2.40;99.90;;;;;;5112652;28;19980;-47
2021/11/28 02:03:47;;;;;;;;;;;2.60;99.90;;;;;;5113215;28;19927;-47
2021/11/28 02:06:15;;;;;;;;;;;2.50;99.90;;;;;;5113151;28;19976;-47
2021/11/28 02:08:44;;;;;;;;;;;2.60;99.90;;;;;;5112572;28;20459;-47
2021/11/28 02:11:13;;;;;;;;;;;2.50;99.90;;;;;;5112345;28;19924;-47
2021/11/28 02:13:40;;;;;;;;;;;2.40;99.90;;;;;;5111619;28;19957;-47
2021/11/28 02:16:07;;;;;;;;;;;2.40;99.90;;;;;;5112923;28;19924;-46
2021/11/28 02:18:34;;;;;;;;;;;2.40;99.90;;;;;;5112846;28;20499;-47
2021/11/28 02:21:05;;;;;;;;;;;2.30;99.90;;;;;;5112667;28;20489;-47
2021/11/28 02:23:32;;;;;;;;;;;2.40;99.90;;;;;;5112420;28;19976;-47
2021/11/28 02:26:00;;;;;;;;;;;2.30;99.90;;;;;;5112595;28;19927;-47
2021/11/28 02:28:27;;;;;;;;;;;2.30;99.90;;;;;;5112553;28;19928;-46
2021/11/28 02:30:54;;;;;;;;;;;2.40;99.90;;;;;;5112382;28;19969;-47
2021/11/28 02:33:21;;;;;;;;;;;2.40;99.90;;;;;;5112707;28;19976;-47
2021/11/28 02:35:48;;;;;;;;;;;2.40;99.90;;;;;;5112596;28;19924;-46
2021/11/28 02:38:16;;;;;;;;;;;2.50;99.90;;;;;;5111223;28;19923;-47
2021/11/28 02:40:44;;;;;;;;;;;2.50;99.90;;;;;;5112533;28;19989;-47
2021/11/28 02:43:10;;;;;;;;;;;2.50;99.90;;;;;;5112665;28;20044;-47
2021/11/28 02:45:37;;;;;;;;;;;2.60;99.90;;;;;;5112224;28;19972;-47
2021/11/28 02:48:06;;;;;;;;;;;2.60;99.90;;;;;;5112745;28;20335;-47
2021/11/28 02:50:33;;;;;;;;;;;2.50;99.90;;;;;;5112115;28;19977;-47
2021/11/28 02:53:01;;;;;;;;;;;2.40;99.90;;;;;;5111919;28;19927;-47
2021/11/28 02:55:31;;;;;;;;;;;2.40;99.90;;;;;;5112267;28;19924;-47
2021/11/28 02:57:59;;;;;;;;;;;2.40;99.90;;;;;;5112535;28;19993;-47
2021/11/28 03:00:28;;;;;;;;;;;2.40;99.90;;;;;;5112019;28;20382;-47
2021/11/28 03:02:55;;;;;;;;;;;2.60;99.90;;;;;;5111662;28;19932;-47
2021/11/28 03:05:22;;;;;;;;;;;2.70;99.90;;;;;;5112208;28;20282;-47
2021/11/28 03:07:51;;;;;;;;;;;2.40;99.90;;;;;;5112165;28;19923;-47
2021/11/28 03:10:32;;;;;;;;;;;2.50;99.90;;;;;;5112138;28;20427;-47
2021/11/28 03:12:59;;;;;;;;;;;2.40;99.90;;;;;;5112482;28;19976;-47
2021/11/28 03:15:26;;;;;;;;;;;2.40;99.90;;;;;;5111937;28;19924;-46
2021/11/28 03:17:53;;;;;;;;;;;2.40;99.90;;;;;;5111920;28;19924;-46
2021/11/28 03:20:20;;;;;;;;;;;2.40;99.90;;;;;;5114549;28;19924;-46
2021/11/28 03:22:47;;;;;;;;;;;2.60;99.90;;;;;;5115997;28;19928;-47
2021/11/28 03:25:14;;;;;;;;;;;2.50;99.90;;;;;;5115989;28;20283;-47
2021/11/28 03:27:43;;;;;;;;;;;2.40;99.90;;;;;;5116091;28;19928;-46
2021/11/28 03:30:10;;;;;;;;;;;2.50;99.90;;;;;;5115752;28;19990;-46
2021/11/28 03:32:37;;;;;;;;;;;2.40;99.90;;;;;;5115651;28;19976;-47
2021/11/28 03:35:04;;;;;;;;;;;2.30;99.90;;;;;;5115695;28;19924;-48
2021/11/28 03:37:31;;;;;;;;;;;2.30;99.90;;;;;;5113664;28;20409;-47
2021/11/28 03:39:57;;;;;;;;;;;2.40;99.90;;;;;;5144692;22;20034;-51
2021/11/28 03:42:24;;;;;;;;;;;2.60;99.90;;;;;;5135994;27;19923;-51
2021/11/28 03:44:53;;;;;;;;;;;2.50;99.90;;;;;;5136567;27;19923;-51
2021/11/28 03:47:20;;;;;;;;;;;2.40;99.90;;;;;;5136440;27;19940;-51
2021/11/28 03:49:47;;;;;;;;;;;2.40;99.90;;;;;;5136150;27;19924;-51
2021/11/28 03:52:13;;;;;;;;;;;2.60;99.90;;;;;;5135974;27;19976;-51
2021/11/28 03:54:40;;;;;;;;;;;2.50;99.90;;;;;;5135940;27;20411;-51
2021/11/28 03:57:07;;;;;;;;;;;2.60;99.90;;;;;;5136312;27;19965;-51
2021/11/28 03:59:34;;;;;;;;;;;2.70;99.90;;;;;;5135846;27;19924;-51
2021/11/28 04:02:02;;;;;;;;;;;2.70;99.90;;;;;;5135803;27;19935;-51
2021/11/28 04:04:30;;;;;;;;;;;2.70;99.90;;;;;;5136105;27;19930;-51
2021/11/28 04:06:56;;;;;;;;;;;2.60;99.90;;;;;;5135581;27;19928;-52
2021/11/28 04:09:23;;;;;;;;;;;2.50;99.90;;;;;;5135810;27;19923;-51
2021/11/28 04:11:50;;;;;;;;;;;2.50;99.90;;;;;;5135504;27;19980;-51
2021/11/28 04:14:18;;;;;;;;;;;2.50;99.90;;;;;;5120310;27;19924;-52
2021/11/28 04:16:44;;;;;;;;;;;2.50;99.90;;;;;;5115010;28;19931;-51
2021/11/28 04:19:13;;;;;;;;;;;2.40;99.90;;;;;;5115211;28;19977;-51
2021/11/28 04:21:43;;;;;;;;;;;2.50;99.90;;;;;;5115002;28;19928;-52
2021/11/28 04:24:10;;;;;;;;;;;2.40;99.90;;;;;;5133416;27;20022;-51
2021/11/28 04:26:37;;;;;;;;;;;2.40;99.90;;;;;;5135481;27;19930;-52
2021/11/28 04:29:04;;;;;;;;;;;2.40;99.90;;;;;;5135402;27;19931;-51
2021/11/28 04:31:31;;;;;;;;;;;2.40;99.90;;;;;;5125022;27;19924;-51
2021/11/28 04:33:57;;;;;;;;;;;2.40;99.90;;;;;;5114920;28;20023;-52
2021/11/28 04:36:26;;;;;;;;;;;2.40;99.90;;;;;;5114811;28;20332;-51
2021/11/28 04:38:53;;;;;;;;;;;2.30;99.90;;;;;;5121205;27;19924;-52
2021/11/28 04:41:19;;;;;;;;;;;2.20;99.90;;;;;;5135035;27;19927;-51
2021/11/28 04:43:46;;;;;;;;;;;2.30;99.90;;;;;;5135366;27;19976;-51
2021/11/28 04:46:13;;;;;;;;;;;2.30;99.90;;;;;;5135157;27;19924;-52
2021/11/28 04:48:40;;;;;;;;;;;2.40;99.90;;;;;;5116565;27;19973;-51
2021/11/28 04:51:06;;;;;;;;;;;2.40;99.90;;;;;;5114401;28;19928;-52
2021/11/28 04:53:34;;;;;;;;;;;2.30;99.90;;;;;;5114520;28;19984;-52
2021/11/28 04:56:01;;;;;;;;;;;2.30;99.90;;;;;;5129401;27;19924;-51
2021/11/28 04:58:28;;;;;;;;;;;2.20;99.90;;;;;;5135035;27;19999;-51
2021/11/28 05:00:55;;;;;;;;;;;2.20;99.90;;;;;;5134889;27;19988;-51
2021/11/28 05:03:22;;;;;;;;;;;2.20;99.90;;;;;;5134954;27;19923;-52
2021/11/28 05:05:48;;;;;;;;;;;2.20;99.90;;;;;;5134795;27;19927;-51
2021/11/28 05:08:15;;;;;;;;;;;2.10;99.90;;;;;;5134797;27;19992;-52
2021/11/28 05:10:43;;;;;;;;;;;2.10;99.90;;;;;;5133959;27;19976;-52
2021/11/28 05:13:10;;;;;;;;;;;2.30;99.90;;;;;;5134889;27;20358;-52
2021/11/28 05:15:37;;;;;;;;;;;2.20;99.90;;;;;;5129287;27;20396;-51
2021/11/28 05:18:04;;;;;;;;;;;2.20;99.90;;;;;;5123654;27;20040;-52
2021/11/28 05:20:30;;;;;;;;;;;2.20;99.90;;;;;;5127452;27;20400;-51
2021/11/28 05:22:57;;;;;;;;;;;2.20;99.90;;;;;;5119748;27;19928;-51
2021/11/28 05:25:24;;;;;;;;;;;2.10;99.90;;;;;;5122488;27;20383;-51
2021/11/28 05:27:52;;;;;;;;;;;2.20;99.90;;;;;;5137839;27;19981;-51
2021/11/28 05:30:20;;;;;;;;;;;2.20;99.90;;;;;;5137755;27;19924;-50
2021/11/28 05:32:50;;;;;;;;;;;2.20;99.90;;;;;;5134598;27;19923;-52
2021/11/28 05:35:17;;;;;;;;;;;2.10;99.90;;;;;;5118570;27;19923;-51
2021/11/28 05:37:45;;;;;;;;;;;2.10;99.90;;;;;;5123238;27;19924;-51
2021/11/28 05:40:13;;;;;;;;;;;2.00;99.90;;;;;;5123479;27;20010;-52
2021/11/28 05:42:44;;;;;;;;;;;2.00;99.90;;;;;;5130549;27;19927;-52
2021/11/28 05:45:13;;;;;;;;;;;2.10;99.90;;;;;;5123882;27;19963;-52
2021/11/28 05:47:43;;;;;;;;;;;2.10;99.90;;;;;;5133715;27;19975;-53
2021/11/28 05:50:10;;;;;;;;;;;2.10;99.90;;;;;;5128764;27;20014;-53
2021/11/28 05:52:37;;;;;;;;;;;2.10;99.90;;;;;;5133778;27;19923;-55
2021/11/28 05:55:04;;;;;;;;;;;2.00;99.90;;;;;;5133834;27;19952;-53
2021/11/28 05:57:31;;;;;;;;;;;1.90;99.90;;;;;;5133576;27;20346;-53
2021/11/28 05:59:58;;;;;;;;;;;1.90;99.90;;;;;;5114713;27;19924;-53
2021/11/28 06:02:26;;;;;;;;;;;1.90;99.90;;;;;;5119281;27;19928;-52
2021/11/28 06:04:53;;;;;;;;;;;1.80;99.90;;;;;;5133668;27;20317;-55
2021/11/28 06:07:20;;;;;;;;;;;1.80;99.90;;;;;;5133666;27;20424;-53
2021/11/28 06:09:46;;;;;;;;;;;1.90;99.90;;;;;;5133527;27;19983;-53
2021/11/28 06:12:13;;;;;;;;;;;2.00;99.90;;;;;;5130344;27;19928;-55
2021/11/28 06:14:40;;;;;;;;;;;2.10;99.90;;;;;;5114271;27;19927;-53
2021/11/28 06:17:07;;;;;;;;;;;2.10;99.90;;;;;;5112740;28;19927;-52
2021/11/28 06:19:35;;;;;;;;;;;2.20;99.90;;;;;;5112932;28;19927;-53
2021/11/28 06:22:02;;;;;;;;;;;2.10;99.90;;;;;;5128347;27;19959;-53
2021/11/28 06:24:29;;;;;;;;;;;2.20;99.90;;;;;;5133538;27;19946;-53
2021/11/28 06:26:55;;;;;;;;;;;2.20;99.90;;;;;;5132880;27;19932;-54
2021/11/28 06:29:22;;;;;;;;;;;2.20;99.90;;;;;;5121654;27;19923;-52
2021/11/28 06:31:49;;;;;;;;;;;2.10;99.90;;;;;;5132501;27;19924;-53
2021/11/28 06:34:17;;;;;;;;;;;2.20;99.90;;;;;;5128536;27;19923;-52
2021/11/28 06:36:45;;;;;;;;;;;2.20;99.90;;;;;;5125319;27;20027;-53
2021/11/28 06:39:11;;;;;;;;;;;2.20;99.90;;;;;;5133230;28;19931;-53
2021/11/28 06:41:39;;;;;;;;;;;2.30;99.90;;;;;;5120820;28;20313;-54
2021/11/28 06:44:05;;;;;;;;;;;2.30;99.90;;;;;;5120892;28;20429;-53
2021/11/28 06:46:35;;;;;;;;;;;2.40;99.90;;;;;;5126132;28;19931;-53
2021/11/28 06:49:02;;;;;;;;;;;2.40;99.90;;;;;;5123422;28;19985;-53
2021/11/28 06:51:29;;;;;;;;;;;2.40;99.90;;;;;;5127275;28;19927;-53
2021/11/28 06:53:57;;;;;;;;;;;2.40;99.90;;;;;;5131546;27;19984;-53
2021/11/28 06:56:23;;;;;;;;;;;2.30;99.90;;;;;;5127795;27;19923;-52
2021/11/28 06:58:50;;;;;;;;;;;2.30;99.90;;;;;;5133341;27;19976;-53
2021/11/28 07:01:17;;;;;;;;;;;2.30;99.90;;;;;;5133624;27;19958;-53
2021/11/28 07:03:44;;;;;;;;;;;2.30;99.90;;;;;;5133148;27;19931;-54
2021/11/28 07:06:11;;;;;;;;;;;2.30;99.90;;;;;;5133792;27;19936;-52
2021/11/28 07:08:38;;;;;;;;;;;2.20;99.90;;;;;;5131535;27;19977;-52
2021/11/28 07:11:06;;;;;;;;;;;2.10;99.90;;;;;;5134243;27;19923;-53
2021/11/28 07:13:33;;;;;;;;;;;2.10;99.90;;;;;;5133796;27;20000;-54
2021/11/28 07:16:00;;;;;;;;;;;2.30;99.90;;;;;;5132667;27;19927;-52
2021/11/28 07:18:27;;;;;;;;;;;2.30;99.90;;;;;;5130105;27;19923;-53
2021/11/28 07:20:54;;;;;;;;;;;2.40;99.90;;;;;;5130519;27;19927;-52
2021/11/28 07:23:21;;;;;;;;;;;2.40;99.90;;;;;;5131874;27;19927;-54
2021/11/28 07:25:49;;;;;;;;;;;2.50;99.90;;;;;;5128699;27;19924;-54
2021/11/28 07:28:17;;;;;;;;;;;2.40;99.90;;;;;;5126794;27;19931;-53
2021/11/28 07:30:49;;;;;;;;;;;2.50;99.90;;;;;;5130564;27;20349;-51
2021/11/28 07:33:16;;;;;;;;;;;2.50;99.90;;;;;;5132131;27;20027;-53
2021/11/28 07:35:43;;;;;;;;;;;2.60;99.90;;;;;;5131666;27;19943;-53
2021/11/28 07:38:10;;;;;;;;;;;2.60;99.90;;;;;;5125585;27;20003;-53
2021/11/28 07:40:36;;;;;;;;;;;2.60;99.90;;;;;;5131932;27;19923;-53
2021/11/28 07:43:03;;;;;;;;;;;2.40;99.90;;;;;;5134045;27;19968;-54
2021/11/28 07:45:31;;;;;;;;;;;2.30;99.90;;;;;;5129902;27;20278;-53
2021/11/28 07:47:58;;;;;;;;;;;2.20;99.90;;;;;;5128809;27;19923;-53
2021/11/28 07:50:25;;;;;;;;;;;2.20;99.90;;;;;;5124723;27;19930;-52
2021/11/28 07:52:53;;;;;;;;;;;2.20;99.90;;;;;;5129111;27;19935;-53
2021/11/28 07:55:20;;;;;;;;;;;2.20;99.90;;;;;;5125837;27;19923;-53
2021/11/28 07:57:51;;;;;;;;;;;2.30;99.90;;;;;;5131201;27;19968;-52
2021/11/28 08:00:18;;;;;;;;;;;2.30;99.90;;;;;;5131045;27;19976;-52
2021/11/28 08:02:49;;;;;;;;;;;2.20;99.90;;;;;;5134551;27;19923;-53
2021/11/28 08:05:16;;;;;;;;;;;2.10;99.90;;;;;;5134334;27;19994;-54
2021/11/28 08:07:42;;;;;;;;;;;2.20;99.90;;;;;;5123404;27;20351;-52
2021/11/28 08:10:10;;;;;;;;;;;2.30;99.90;;;;;;5129045;27;20389;-52
2021/11/28 08:12:40;;;;;;;;;;;2.40;99.90;;;;;;5135699;27;19923;-52
2021/11/28 08:15:09;;;;;;;;;;;2.40;99.90;;;;;;5135490;27;19924;-55
2021/11/28 08:17:38;;;;;;;;;;;2.40;99.90;;;;;;5133798;27;20393;-55
2021/11/28 08:20:07;;;;;;;;;;;2.50;99.90;;;;;;5126665;27;19931;-54
2021/11/28 08:22:34;;;;;;;;;;;2.50;99.90;;;;;;5131388;27;19927;-55
2021/11/28 08:25:01;;;;;;;;;;;2.40;99.90;;;;;;5129463;27;19969;-52
2021/11/28 08:27:28;;;;;;;;;;;2.40;99.90;;;;;;5118872;27;19995;-53
2021/11/28 08:29:57;;;;;;;;;;;2.30;99.90;;;;;;5132833;27;19928;-54
2021/11/28 08:32:24;;;;;;;;;;;2.40;99.90;;;;;;5132481;27;19924;-53
2021/11/28 08:34:50;;;;;;;;;;;2.50;99.90;;;;;;5127668;27;19985;-53
2021/11/28 08:37:18;;;;;;;;;;;2.40;99.90;;;;;;5133422;27;19924;-54
2021/11/28 08:39:46;;;;;;;;;;;2.50;99.90;;;;;;5127164;27;20449;-53
2021/11/28 08:42:13;;;;;;;;;;;2.50;99.90;;;;;;5125610;27;19924;-54
2021/11/28 08:44:40;;;;;;;;;;;2.50;99.90;;;;;;5125872;27;20354;-54
2021/11/28 08:47:08;;;;;;;;;;;2.50;99.90;;;;;;5123443;27;19931;-54
2021/11/28 08:49:35;;;;;;;;;;;2.50;99.90;;;;;;5119726;27;20447;-55
2021/11/28 08:52:02;;;;;;;;;;;2.40;99.90;;;;;;5118217;27;19927;-53
2021/11/28 08:54:31;;;;;;;;;;;2.30;99.90;;;;;;5133741;27;19928;-55
2021/11/28 08:56:59;;;;;;;;;;;2.40;99.90;;;;;;5133832;27;19923;-53
2021/11/28 08:59:27;;;;;;;;;;;2.60;99.90;;;;;;5130258;27;19928;-54
2021/11/28 09:01:54;;;;;;;;;;;2.70;99.90;;;;;;5128257;27;19927;-53
2021/11/28 09:04:21;;;;;;;;;;;2.70;99.90;;;;;;5131511;27;19957;-53
2021/11/28 09:06:48;;;;;;;;;;;2.80;99.90;;;;;;5127623;27;20304;-54
2021/11/28 09:09:15;;;;;;;;;;;2.80;99.90;;;;;;5119189;27;20014;-52
2021/11/28 09:11:43;;;;;;;;;;;2.80;99.90;;;;;;5123114;27;19923;-54
2021/11/28 09:14:10;;;;;;;;;;;2.80;99.90;;;;;;5122395;27;20010;-54
2021/11/28 09:16:37;;;;;;;;;;;2.70;99.90;;;;;;5128409;27;19924;-53
2021/11/28 09:19:07;;;;;;;;;;;2.90;99.90;;;;;;5118960;27;19924;-54
2021/11/28 09:21:34;;;;;;;;;;;2.90;99.90;;;;;;5133779;27;20408;-53
2021/11/28 09:26:47;;;;;;;;;;;3.20;99.90;;;;;;5133397;27;20068;-54
2021/11/28 09:29:14;;;;;;;;;;;3.30;99.90;;;;;;5133219;27;19982;-55
2021/11/28 09:31:41;;;;;;;;;;;3.30;99.90;;;;;;5134019;27;19924;-53
2021/11/28 09:34:08;;;;;;;;;;;3.10;99.90;;;;;;5133377;27;20351;-54
2021/11/28 09:36:34;;;;;;;;;;;3.00;99.90;;;;;;5133778;27;19924;-54
2021/11/28 09:39:02;;;;;;;;;;;3.00;99.90;;;;;;5132718;27;19923;-54
2021/11/28 09:41:32;;;;;;;;;;;3.00;99.90;;;;;;5129943;27;19947;-54
2021/11/28 09:44:03;;;;;;;;;;;3.10;99.90;;;;;;5151592;22;19946;-49
2021/11/28 09:46:30;;;;;;;;;;;3.20;99.90;;;;;;5092621;28;19977;-49
2021/11/28 09:49:01;;;;;;;;;;;3.40;99.90;;;;;;5091855;28;19924;-48
2021/11/28 09:51:28;;;;;;;;;;;3.50;99.90;;;;;;5093354;28;20372;-49
2021/11/28 09:53:56;;;;;;;;;;;3.40;99.90;;;;;;5106481;28;19928;-49
2021/11/28 09:56:24;;;;;;;;;;;3.30;99.90;;;;;;5089833;28;19924;-50
2021/11/28 09:58:51;;;;;;;;;;;3.30;99.90;;;;;;5092622;28;19925;-50
2021/11/28 10:01:19;;;;;;;;;;;3.20;99.90;;;;;;5092269;28;19924;-49
2021/11/28 10:03:46;;;;;;;;;;;3.20;99.90;;;;;;5091135;28;19998;-49
2021/11/28 10:06:12;;;;;;;;;;;3.40;99.90;;;;;;5091291;28;19928;-50
2021/11/28 10:08:40;;;;;;;;;;;3.40;99.90;;;;;;5085674;28;19927;-51
2021/11/28 10:11:27;;;;;;;;;;;3.40;99.90;;;;;;5081877;28;19954;-50
2021/11/28 10:13:55;;;;;;;;;;;3.60;99.90;;;;;;5045506;28;20364;-49
2021/11/28 10:16:23;;;;;;;;;;;3.70;99.90;;;;;;5083582;28;19928;-49
2021/11/28 10:18:50;;;;;;;;;;;3.60;99.90;;;;;;5091146;28;19924;-49
2021/11/28 10:21:17;;;;;;;;;;;3.60;99.90;;;;;;5090446;28;19924;-50
2021/11/28 10:24:03;;;;;;;;;;;3.60;99.90;;;;;;5090924;28;20385;-49
2021/11/28 10:26:30;;;;;;;;;;;3.70;99.90;;;;;;5086706;28;19928;-49
2021/11/28 10:29:04;;;;;;;;;;;3.70;99.90;;;;;;5085578;28;19928;-50
2021/11/28 10:31:32;;;;;;;;;;;3.60;99.90;;;;;;5084294;28;19978;-50
2021/11/28 10:34:13;;;;;;;;;;;3.60;99.90;;;;;;5079608;28;20344;-49
2021/11/28 10:36:40;;;;;;;;;;;3.70;99.90;;;;;;5085652;28;20356;-50
2021/11/28 10:39:12;;;;;;;;;;;3.70;99.90;;;;;;5085891;28;19928;-51
2021/11/28 10:41:46;;;;;;;;;;;3.90;99.90;;;;;;5079792;28;19978;-49
2021/11/28 10:44:16;;;;;;;;;;;4.00;99.90;;;;;;5086256;28;19924;-49
2021/11/28 10:46:47;;;;;;;;;;;4.00;99.90;;;;;;5091640;28;19924;-49
2021/11/28 10:49:18;;;;;;;;;;;3.90;99.90;;;;;;5085995;28;20387;-50
2021/11/28 10:51:48;;;;;;;;;;;3.90;99.90;;;;;;5091397;28;20006;-49
2021/11/28 10:54:25;;;;;;;;;;;3.90;99.90;;;;;;5071491;28;19924;-49
2021/11/28 10:57:03;;;;;;;;;;;4.10;99.90;;;;;;5088173;28;19928;-50
2021/11/28 10:59:30;;;;;;;;;;;4.10;99.90;;;;;;5087314;28;19928;-49
2021/11/28 11:01:59;;;;;;;;;;;4.20;99.90;;;;;;5090638;28;20441;-49
2021/11/28 11:04:29;;;;;;;;;;;4.20;99.90;;;;;;5091451;28;19974;-49
2021/11/28 11:07:15;;;;;;;;;;;4.20;99.90;;;;;;5090336;28;19924;-49
2021/11/28 11:09:42;;;;;;;;;;;4.10;99.90;;;;;;5091354;28;19939;-48
2021/11/28 11:12:24;;;;;;;;;;;4.00;99.90;;;;;;5079399;28;20003;-49
2021/11/28 11:14:51;;;;;;;;;;;4.00;99.90;;;;;;5089253;28;19946;-49
2021/11/28 11:17:20;;;;;;;;;;;4.00;99.90;;;;;;5080320;28;19970;-51
2021/11/28 11:19:47;;;;;;;;;;;4.10;99.90;;;;;;5083006;28;19930;-50
2021/11/28 11:22:18;;;;;;;;;;;4.20;99.90;;;;;;5090863;28;19931;-50
2021/11/28 11:24:51;;;;;;;;;;;4.40;99.90;;;;;;5091225;28;20022;-49
2021/11/28 11:27:23;;;;;;;;;;;4.60;99.90;;;;;;5088697;28;20414;-49
2021/11/28 11:29:52;;;;;;;;;;;4.50;99.90;;;;;;5085599;28;19924;-51
2021/11/28 11:32:21;;;;;;;;;;;4.30;99.90;;;;;;5090010;28;20279;-51
2021/11/28 11:34:53;;;;;;;;;;;4.30;99.90;;;;;;5090914;28;19982;-49
2021/11/28 11:37:24;;;;;;;;;;;4.10;99.90;;;;;;5091372;28;19947;-48
2021/11/28 11:39:52;;;;;;;;;;;4.30;99.90;;;;;;5085000;28;19970;-49
2021/11/28 11:42:19;;;;;;;;;;;4.00;99.90;;;;;;5094317;28;19923;-49
2021/11/28 11:44:47;;;;;;;;;;;3.90;99.90;;;;;;5088788;28;20014;-48
2021/11/28 11:47:15;;;;;;;;;;;3.70;99.90;;;;;;5093486;28;19924;-49
2021/11/28 11:49:44;;;;;;;;;;;3.60;99.90;;;;;;5089034;28;19977;-48
2021/11/28 11:52:11;;;;;;;;;;;3.40;99.90;;;;;;5093495;28;20339;-48
2021/11/28 11:54:43;;;;;;;;;;;3.50;99.90;;;;;;5091341;28;19928;-50
2021/11/28 11:57:13;;;;;;;;;;;3.40;99.90;;;;;;5085777;28;19932;-49
2021/11/28 11:59:47;;;;;;;;;;;3.20;99.90;;;;;;5094466;28;19928;-50
2021/11/28 12:02:28;;;;;;;;;;;3.20;99.90;;;;;;5094284;28;19924;-48
2021/11/28 12:04:59;;;;;;;;;;;3.20;99.90;;;;;;5094665;28;19947;-48
2021/11/28 12:07:40;;;;;;;;;;;3.30;99.90;;;;;;5094641;28;20401;-49
2021/11/28 12:10:22;;;;;;;;;;;3.50;99.90;;;;;;5087742;28;20394;-49
2021/11/28 12:12:49;;;;;;;;;;;3.60;99.90;;;;;;5071850;28;20015;-49
2021/11/28 12:15:17;;;;;;;;;;;3.80;99.90;;;;;;5083781;28;19923;-50
2021/11/28 12:17:49;;;;;;;;;;;3.80;99.90;;;;;;5094290;28;19931;-49
2021/11/28 12:20:20;;;;;;;;;;;3.90;99.90;;;;;;5094389;28;20035;-49
2021/11/28 12:22:49;;;;;;;;;;;4.00;99.90;;;;;;5088641;28;19939;-48
2021/11/28 12:25:35;;;;;;;;;;;4.10;99.90;;;;;;5076544;28;19991;-50
2021/11/28 12:28:25;;;;;;;;;;;4.20;99.90;;;;;;5087158;28;20006;-50
2021/11/28 12:30:55;;;;;;;;;;;4.30;99.90;;;;;;5102158;28;20010;-49
2021/11/28 12:33:37;;;;;;;;;;;4.40;99.90;;;;;;5093408;28;19946;-49
2021/11/28 12:36:05;;;;;;;;;;;4.30;99.90;;;;;;5093306;28;19931;-50
2021/11/28 12:38:48;;;;;;;;;;;4.30;99.90;;;;;;5093234;28;20248;-49
2021/11/28 12:41:15;;;;;;;;;;;4.20;99.90;;;;;;5093343;28;19924;-50
2021/11/28 12:44:02;;;;;;;;;;;4.30;99.90;;;;;;5093026;28;19930;-49
2021/11/28 12:46:44;;;;;;;;;;;4.30;99.90;;;;;;5091458;28;20021;-50
2021/11/28 12:49:26;;;;;;;;;;;4.50;99.90;;;;;;5085890;28;19924;-49
2021/11/28 12:51:55;;;;;;;;;;;4.50;99.90;;;;;;5089171;28;19971;-50
2021/11/28 12:54:26;;;;;;;;;;;4.40;99.90;;;;;;5091617;28;20469;-51
2021/11/28 12:57:17;;;;;;;;;;;4.50;99.90;;;;;;5092863;28;19932;-50
2021/11/28 13:00:01;;;;;;;;;;;4.60;99.90;;;;;;5067769;28;19924;-50
2021/11/28 13:02:39;;;;;;;;;;;4.70;99.90;;;;;;5092401;28;19947;-49
2021/11/28 13:05:26;;;;;;;;;;;4.80;99.90;;;;;;5092853;28;20305;-49
2021/11/28 13:07:55;;;;;;;;;;;4.80;99.90;;;;;;5078049;28;19936;-50
2021/11/28 13:10:27;;;;;;;;;;;4.80;99.90;;;;;;5090345;28;20015;-50
2021/11/28 13:12:55;;;;;;;;;;;4.80;99.90;;;;;;5092998;28;19927;-50
2021/11/28 13:15:23;;;;;;;;;;;4.80;99.90;;;;;;5087407;28;19932;-49
2021/11/28 13:17:55;;;;;;;;;;;4.80;99.90;;;;;;5086001;28;19946;-49
2021/11/28 13:20:22;;;;;;;;;;;4.80;99.90;;;;;;5092572;28;19978;-50
2021/11/28 13:22:50;;;;;;;;;;;4.80;99.90;;;;;;5089907;28;20023;-51
2021/11/28 13:25:37;;;;;;;;;;;4.80;99.90;;;;;;5092815;28;19924;-49
2021/11/28 13:28:05;;;;;;;;;;;4.80;99.90;;;;;;5092300;28;20352;-49
2021/11/28 13:30:38;;;;;;;;;;;4.90;99.90;;;;;;5092628;28;20011;-48
2021/11/28 13:33:08;;;;;;;;;;;4.70;99.90;;;;;;5092300;28;19931;-48
2021/11/28 13:35:36;;;;;;;;;;;4.80;99.90;;;;;;5092500;28;19924;-49
2021/11/28 13:38:13;;;;;;;;;;;5.00;99.90;;;;;;5093018;28;20042;-47
2021/11/28 13:40:52;;;;;;;;;;;4.90;99.90;;;;;;5092608;28;19924;-48
2021/11/28 13:43:31;;;;;;;;;;;4.80;99.90;;;;;;5092492;28;19981;-47
2021/11/28 13:45:57;;;;;;;;;;;4.80;99.90;;;;;;5092339;28;19939;-48
2021/11/28 13:48:38;;;;;;;;;;;4.90;99.90;;;;;;5092888;28;19927;-48
2021/11/28 13:51:05;;;;;;;;;;;4.90;99.90;;;;;;5091796;28;19924;-48
2021/11/28 13:53:31;;;;;;;;;;;4.90;99.90;;;;;;5086824;28;20015;-48
2021/11/28 13:56:00;;;;;;;;;;;4.90;99.90;;;;;;5081659;28;19970;-48
2021/11/28 13:58:27;;;;;;;;;;;4.90;99.90;;;;;;5091485;28;19924;-48
2021/11/28 14:01:04;;;;;;;;;;;4.80;99.90;;;;;;5092044;28;19928;-47
2021/11/28 14:03:40;;;;;;;;;;;4.80;99.90;;;;;;5087329;28;19928;-47
2021/11/28 14:06:06;;;;;;;;;;;4.80;99.90;;;;;;5085491;28;19970;-47
2021/11/28 14:08:33;;;;;;;;;;;4.60;99.90;;;;;;5081461;28;19928;-49
2021/11/28 14:11:11;;;;;;;;;;;4.60;99.90;;;;;;5080611;28;19947;-47
2021/11/28 14:13:44;;;;;;;;;;;4.60;99.90;;;;;;5079861;28;19930;-48
2021/11/28 14:16:10;;;;;;;;;;;4.50;99.90;;;;;;5083658;28;19970;-49
2021/11/28 14:18:41;;;;;;;;;;;4.40;99.90;;;;;;5081613;28;19983;-49
2021/11/28 14:21:07;;;;;;;;;;;4.50;99.90;;;;;;5082883;28;19936;-49
2021/11/28 14:23:34;;;;;;;;;;;4.50;99.90;;;;;;5081701;28;20408;-48
2021/11/28 14:26:01;;;;;;;;;;;4.50;99.90;;;;;;5083187;28;20001;-48
2021/11/28 14:28:33;;;;;;;;;;;4.40;99.90;;;;;;5081633;28;19931;-47
2021/11/28 14:31:01;;;;;;;;;;;4.20;99.90;;;;;;5082381;28;19935;-49
2021/11/28 14:33:33;;;;;;;;;;;4.10;99.90;;;;;;5080298;28;19924;-48
2021/11/28 14:36:01;;;;;;;;;;;4.10;99.90;;;;;;5079558;28;20455;-48
2021/11/28 14:38:29;;;;;;;;;;;4.00;99.90;;;;;;5081869;28;19931;-49
2021/11/28 14:40:57;;;;;;;;;;;3.90;99.90;;;;;;5079382;28;19932;-48
2021/11/28 14:43:25;;;;;;;;;;;3.80;99.90;;;;;;5085133;28;19924;-48